sensor_id;sensor_type;location;lat;lon;timestamp;pressure;altitude;pressure_sealevel;temperature;humidity
65800;BME280;52544;48.116;11.660;2023-03-14T00:00:31;94166.50;;;11.17;85.35
65800;BME280;52544;48.116;11.660;2023-03-14T00:02:56;94158.22;;;11.20;85.61
65800;BME280;52544;48.116;11.660;2023-03-14T00:05:22;94154.91;;;11.18;85.63
65800;BME280;52544;48.116;11.660;2023-03-14T00:07:49;94160.03;;;11.12;86.09
65800;BME280;52544;48.116;11.660;2023-03-14T00:10:15;94152.94;;;11.04;86.57
65800;BME280;52544;48.116;11.660;2023-03-14T00:12:41;94151.28;;;11.03;86.83
65800;BME280;52544;48.116;11.660;2023-03-14T00:15:07;94159.75;;;10.98;86.88
65800;BME280;52544;48.116;11.660;2023-03-14T00:17:34;94183.75;;;10.97;87.50
65800;BME280;52544;48.116;11.660;2023-03-14T00:19:59;94190.19;;;10.94;87.67
65800;BME280;52544;48.116;11.660;2023-03-14T00:22:34;94187.53;;;10.94;87.61
65800;BME280;52544;48.116;11.660;2023-03-14T00:25:01;94171.16;;;10.91;87.90
65800;BME280;52544;48.116;11.660;2023-03-14T00:27:26;94154.47;;;10.90;87.95
65800;BME280;52544;48.116;11.660;2023-03-14T00:29:51;94144.38;;;10.86;88.30
65800;BME280;52544;48.116;11.660;2023-03-14T00:32:17;94132.47;;;10.90;88.66
65800;BME280;52544;48.116;11.660;2023-03-14T00:34:42;94143.69;;;11.00;88.01
65800;BME280;52544;48.116;11.660;2023-03-14T00:37:08;94147.34;;;10.91;87.92
65800;BME280;52544;48.116;11.660;2023-03-14T00:39:33;94140.25;;;10.83;88.72
65800;BME280;52544;48.116;11.660;2023-03-14T00:41:59;94133.28;;;10.82;88.73
65800;BME280;52544;48.116;11.660;2023-03-14T00:44:24;94142.72;;;10.85;88.70
65800;BME280;52544;48.116;11.660;2023-03-14T00:46:50;94150.00;;;10.74;89.54
65800;BME280;52544;48.116;11.660;2023-03-14T00:49:15;94154.97;;;10.69;89.98
65800;BME280;52544;48.116;11.660;2023-03-14T00:51:40;94164.91;;;10.75;89.74
65800;BME280;52544;48.116;11.660;2023-03-14T00:54:06;94169.19;;;10.85;89.16
65800;BME280;52544;48.116;11.660;2023-03-14T00:56:31;94169.53;;;10.82;89.24
65800;BME280;52544;48.116;11.660;2023-03-14T00:58:57;94170.53;;;10.81;89.13
65800;BME280;52544;48.116;11.660;2023-03-14T01:01:23;94174.50;;;10.85;89.24
65800;BME280;52544;48.116;11.660;2023-03-14T01:03:52;94183.25;;;10.85;89.84
65800;BME280;52544;48.116;11.660;2023-03-14T01:06:21;94191.50;;;10.82;90.83
65800;BME280;52544;48.116;11.660;2023-03-14T01:08:47;94197.97;;;10.80;91.75
65800;BME280;52544;48.116;11.660;2023-03-14T01:11:27;94194.84;;;10.84;92.22
65800;BME280;52544;48.116;11.660;2023-03-14T01:13:53;94210.72;;;10.76;93.64
65800;BME280;52544;48.116;11.660;2023-03-14T01:16:20;94212.53;;;10.67;95.15
65800;BME280;52544;48.116;11.660;2023-03-14T01:18:47;94204.59;;;10.59;96.96
65800;BME280;52544;48.116;11.660;2023-03-14T01:21:21;94209.88;;;10.51;99.36
65800;BME280;52544;48.116;11.660;2023-03-14T01:23:48;94216.28;;;10.48;99.89
65800;BME280;52544;48.116;11.660;2023-03-14T01:26:16;94208.34;;;10.40;100.00
65800;BME280;52544;48.116;11.660;2023-03-14T01:28:42;94196.78;;;10.33;100.00
65800;BME280;52544;48.116;11.660;2023-03-14T01:31:09;94206.13;;;10.19;100.00
65800;BME280;52544;48.116;11.660;2023-03-14T01:33:35;94206.78;;;10.13;100.00
65800;BME280;52544;48.116;11.660;2023-03-14T01:36:01;94211.06;;;10.06;100.00
65800;BME280;52544;48.116;11.660;2023-03-14T01:38:32;94211.56;;;10.10;100.00
65800;BME280;52544;48.116;11.660;2023-03-14T01:40:58;94207.91;;;9.94;100.00
65800;BME280;52544;48.116;11.660;2023-03-14T01:43:25;94213.06;;;10.04;100.00
65800;BME280;52544;48.116;11.660;2023-03-14T01:48:35;94207.91;;;9.94;100.00
65800;BME280;52544;48.116;11.660;2023-03-14T01:51:06;94205.75;;;9.90;100.00
65800;BME280;52544;48.116;11.660;2023-03-14T01:53:32;94203.25;;;9.88;100.00
65800;BME280;52544;48.116;11.660;2023-03-14T01:55:58;94207.75;;;9.96;100.00
65800;BME280;52544;48.116;11.660;2023-03-14T01:58:25;94211.38;;;9.95;100.00
65800;BME280;52544;48.116;11.660;2023-03-14T02:00:57;94215.66;;;9.96;100.00
65800;BME280;52544;48.116;11.660;2023-03-14T02:03:24;94228.72;;;9.97;100.00
65800;BME280;52544;48.116;11.660;2023-03-14T02:05:53;94221.97;;;10.03;100.00
65800;BME280;52544;48.116;11.660;2023-03-14T02:08:22;94231.53;;;9.96;100.00
65800;BME280;52544;48.116;11.660;2023-03-14T02:10:50;94230.50;;;9.89;100.00
65800;BME280;52544;48.116;11.660;2023-03-14T02:13:17;94217.75;;;9.84;100.00
65800;BME280;52544;48.116;11.660;2023-03-14T02:15:43;94215.63;;;9.88;100.00
65800;BME280;52544;48.116;11.660;2023-03-14T02:18:09;94217.25;;;9.81;100.00
65800;BME280;52544;48.116;11.660;2023-03-14T02:20:38;94213.75;;;9.72;100.00
65800;BME280;52544;48.116;11.660;2023-03-14T02:23:05;94222.16;;;9.67;100.00
65800;BME280;52544;48.116;11.660;2023-03-14T02:25:41;94211.59;;;9.67;100.00
65800;BME280;52544;48.116;11.660;2023-03-14T02:28:10;94222.81;;;9.61;100.00
65800;BME280;52544;48.116;11.660;2023-03-14T02:30:36;94212.38;;;9.60;100.00
65800;BME280;52544;48.116;11.660;2023-03-14T02:33:07;94192.06;;;9.52;100.00
65800;BME280;52544;48.116;11.660;2023-03-14T02:35:45;94179.78;;;9.43;100.00
65800;BME280;52544;48.116;11.660;2023-03-14T02:41:06;94151.00;;;9.23;100.00
65800;BME280;52544;48.116;11.660;2023-03-14T02:43:32;94144.03;;;9.14;100.00
65800;BME280;52544;48.116;11.660;2023-03-14T02:45:58;94132.47;;;9.15;100.00
65800;BME280;52544;48.116;11.660;2023-03-14T02:48:28;94116.94;;;9.12;100.00
65800;BME280;52544;48.116;11.660;2023-03-14T02:50:56;94096.19;;;9.09;100.00
65800;BME280;52544;48.116;11.660;2023-03-14T02:53:33;94094.03;;;9.13;100.00
65800;BME280;52544;48.116;11.660;2023-03-14T02:55:59;94085.94;;;9.06;100.00
65800;BME280;52544;48.116;11.660;2023-03-14T02:58:25;94078.84;;;9.07;100.00
65800;BME280;52544;48.116;11.660;2023-03-14T03:00:52;94074.06;;;9.10;100.00
65800;BME280;52544;48.116;11.660;2023-03-14T03:03:17;94080.00;;;9.12;100.00
65800;BME280;52544;48.116;11.660;2023-03-14T03:05:43;94075.72;;;9.11;100.00
65800;BME280;52544;48.116;11.660;2023-03-14T03:08:09;94088.75;;;9.13;100.00
65800;BME280;52544;48.116;11.660;2023-03-14T03:10:35;94076.72;;;9.10;100.00
65800;BME280;52544;48.116;11.660;2023-03-14T03:13:01;94075.56;;;9.13;100.00
65800;BME280;52544;48.116;11.660;2023-03-14T03:15:27;94060.88;;;9.10;100.00
65800;BME280;52544;48.116;11.660;2023-03-14T03:17:52;94061.53;;;9.12;100.00
65800;BME280;52544;48.116;11.660;2023-03-14T03:20:18;94054.28;;;9.06;100.00
65800;BME280;52544;48.116;11.660;2023-03-14T03:22:43;94067.78;;;9.03;100.00
65800;BME280;52544;48.116;11.660;2023-03-14T03:25:09;94060.16;;;9.00;100.00
65800;BME280;52544;48.116;11.660;2023-03-14T03:27:36;94048.63;;;8.93;100.00
65800;BME280;52544;48.116;11.660;2023-03-14T03:30:03;94059.16;;;8.93;100.00
65800;BME280;52544;48.116;11.660;2023-03-14T03:32:29;94051.56;;;8.90;100.00
65800;BME280;52544;48.116;11.660;2023-03-14T03:34:54;94058.81;;;8.88;100.00
65800;BME280;52544;48.116;11.660;2023-03-14T03:37:20;94054.09;;;8.73;100.00
65800;BME280;52544;48.116;11.660;2023-03-14T03:39:45;94053.28;;;8.73;100.00
65800;BME280;52544;48.116;11.660;2023-03-14T03:42:11;94048.22;;;8.80;100.00
65800;BME280;52544;48.116;11.660;2023-03-14T03:44:36;94052.66;;;8.79;100.00
65800;BME280;52544;48.116;11.660;2023-03-14T03:47:02;94057.44;;;8.75;100.00
65800;BME280;52544;48.116;11.660;2023-03-14T03:49:31;94048.84;;;8.73;100.00
65800;BME280;52544;48.116;11.660;2023-03-14T03:51:57;94054.41;;;8.70;100.00
65800;BME280;52544;48.116;11.660;2023-03-14T03:54:23;94060.03;;;8.67;100.00
65800;BME280;52544;48.116;11.660;2023-03-14T03:56:48;94051.91;;;8.61;100.00
65800;BME280;52544;48.116;11.660;2023-03-14T03:59:14;94064.03;;;8.54;100.00
65800;BME280;52544;48.116;11.660;2023-03-14T04:01:39;94064.88;;;8.54;100.00
65800;BME280;52544;48.116;11.660;2023-03-14T04:04:05;94058.09;;;8.51;100.00
65800;BME280;52544;48.116;11.660;2023-03-14T04:06:30;94056.50;;;8.59;100.00
65800;BME280;52544;48.116;11.660;2023-03-14T04:08:56;94052.06;;;8.59;100.00
65800;BME280;52544;48.116;11.660;2023-03-14T04:11:22;94047.69;;;8.42;100.00
65800;BME280;52544;48.116;11.660;2023-03-14T04:13:47;94048.56;;;8.50;100.00
65800;BME280;52544;48.116;11.660;2023-03-14T04:16:16;94053.50;;;8.54;100.00
65800;BME280;52544;48.116;11.660;2023-03-14T04:18:42;94055.59;;;8.42;100.00
65800;BME280;52544;48.116;11.660;2023-03-14T04:21:07;94046.00;;;8.41;100.00
65800;BME280;52544;48.116;11.660;2023-03-14T04:23:32;94047.28;;;8.37;100.00
65800;BME280;52544;48.116;11.660;2023-03-14T04:25:59;94044.34;;;8.40;100.00
65800;BME280;52544;48.116;11.660;2023-03-14T04:28:24;94037.69;;;8.36;100.00
65800;BME280;52544;48.116;11.660;2023-03-14T04:30:50;94029.28;;;8.32;100.00
65800;BME280;52544;48.116;11.660;2023-03-14T04:33:15;94021.22;;;8.34;100.00
65800;BME280;52544;48.116;11.660;2023-03-14T04:35:43;94012.97;;;8.29;100.00
65800;BME280;52544;48.116;11.660;2023-03-14T04:38:09;94005.19;;;8.27;100.00
65800;BME280;52544;48.116;11.660;2023-03-14T04:40:42;94001.09;;;8.24;100.00
65800;BME280;52544;48.116;11.660;2023-03-14T04:43:11;94006.72;;;8.30;100.00
65800;BME280;52544;48.116;11.660;2023-03-14T04:45:37;93999.78;;;8.29;100.00
65800;BME280;52544;48.116;11.660;2023-03-14T04:48:03;94013.88;;;8.19;100.00
65800;BME280;52544;48.116;11.660;2023-03-14T04:50:28;94011.63;;;8.24;100.00
65800;BME280;52544;48.116;11.660;2023-03-14T04:52:53;94002.72;;;8.25;100.00
65800;BME280;52544;48.116;11.660;2023-03-14T04:55:19;94003.56;;;8.26;100.00
65800;BME280;52544;48.116;11.660;2023-03-14T04:57:44;93994.78;;;8.17;100.00
65800;BME280;52544;48.116;11.660;2023-03-14T05:00:10;93997.47;;;8.25;100.00
65800;BME280;52544;48.116;11.660;2023-03-14T05:02:36;93995.81;;;8.24;100.00
65800;BME280;52544;48.116;11.660;2023-03-14T05:05:02;93978.72;;;8.29;100.00
65800;BME280;52544;48.116;11.660;2023-03-14T05:07:28;93992.50;;;8.22;100.00
65800;BME280;52544;48.116;11.660;2023-03-14T05:09:53;93985.09;;;8.26;100.00
65800;BME280;52544;48.116;11.660;2023-03-14T05:12:20;93991.97;;;8.19;100.00
65800;BME280;52544;48.116;11.660;2023-03-14T05:14:46;93992.50;;;8.22;100.00
65800;BME280;52544;48.116;11.660;2023-03-14T05:17:11;93979.47;;;8.21;100.00
65800;BME280;52544;48.116;11.660;2023-03-14T05:19:40;93980.31;;;8.21;100.00
65800;BME280;52544;48.116;11.660;2023-03-14T05:22:05;93975.03;;;8.21;100.00
65800;BME280;52544;48.116;11.660;2023-03-14T05:24:31;93983.09;;;8.20;100.00
65800;BME280;52544;48.116;11.660;2023-03-14T05:26:56;93973.69;;;8.17;100.00
65800;BME280;52544;48.116;11.660;2023-03-14T05:29:22;93980.97;;;8.23;100.00
65800;BME280;52544;48.116;11.660;2023-03-14T05:31:47;93979.47;;;8.21;100.00
65800;BME280;52544;48.116;11.660;2023-03-14T05:34:12;93983.94;;;8.20;100.00
65800;BME280;52544;48.116;11.660;2023-03-14T05:36:38;93981.25;;;8.12;100.00
65800;BME280;52544;48.116;11.660;2023-03-14T05:39:03;93979.56;;;8.11;100.00
65800;BME280;52544;48.116;11.660;2023-03-14T05:41:29;93980.41;;;8.12;100.00
65800;BME280;52544;48.116;11.660;2023-03-14T05:43:54;93983.09;;;8.20;100.00
65800;BME280;52544;48.116;11.660;2023-03-14T05:46:20;93984.22;;;8.17;100.00
65800;BME280;52544;48.116;11.660;2023-03-14T05:48:45;93976.03;;;8.20;100.00
65800;BME280;52544;48.116;11.660;2023-03-14T05:51:11;93987.16;;;8.14;100.00
65800;BME280;52544;48.116;11.660;2023-03-14T05:53:36;93981.53;;;8.09;100.00
65800;BME280;52544;48.116;11.660;2023-03-14T05:56:01;93976.28;;;8.09;100.00
65800;BME280;52544;48.116;11.660;2023-03-14T05:58:27;93974.94;;;8.05;100.00
65800;BME280;52544;48.116;11.660;2023-03-14T06:00:52;93974.63;;;8.08;100.00
65800;BME280;52544;48.116;11.660;2023-03-14T06:03:18;93971.81;;;8.10;100.00
65800;BME280;52544;48.116;11.660;2023-03-14T06:05:43;93965.09;;;8.15;100.00
65800;BME280;52544;48.116;11.660;2023-03-14T06:08:09;93961.97;;;8.12;100.00
65800;BME280;52544;48.116;11.660;2023-03-14T06:10:35;93968.84;;;8.05;100.00
65800;BME280;52544;48.116;11.660;2023-03-14T06:13:01;93975.97;;;8.12;100.00
65800;BME280;52544;48.116;11.660;2023-03-14T06:15:26;93958.19;;;8.14;100.00
65800;BME280;52544;48.116;11.660;2023-03-14T06:17:54;93966.25;;;8.13;100.00
65800;BME280;52544;48.116;11.660;2023-03-14T06:20:20;93961.50;;;8.16;100.00
65800;BME280;52544;48.116;11.660;2023-03-14T06:22:45;93964.78;;;8.18;100.00
65800;BME280;52544;48.116;11.660;2023-03-14T06:25:10;93965.31;;;8.22;100.00
65800;BME280;52544;48.116;11.660;2023-03-14T06:27:36;93968.94;;;8.21;100.00
65800;BME280;52544;48.116;11.660;2023-03-14T06:30:01;93959.69;;;8.17;100.00
65800;BME280;52544;48.116;11.660;2023-03-14T06:32:28;93959.69;;;8.17;100.00
65800;BME280;52544;48.116;11.660;2023-03-14T06:34:53;93947.88;;;8.21;100.00
65800;BME280;52544;48.116;11.660;2023-03-14T06:37:18;93938.97;;;8.22;100.00
65800;BME280;52544;48.116;11.660;2023-03-14T06:39:44;93929.09;;;8.24;100.00
65800;BME280;52544;48.116;11.660;2023-03-14T06:42:10;93934.22;;;8.25;100.00
65800;BME280;52544;48.116;11.660;2023-03-14T06:44:35;93926.00;;;8.29;100.00
65800;BME280;52544;48.116;11.660;2023-03-14T06:47:01;93928.00;;;8.35;100.00
65800;BME280;52544;48.116;11.660;2023-03-14T06:49:26;93925.09;;;8.38;100.00
65800;BME280;52544;48.116;11.660;2023-03-14T06:51:52;93943.72;;;8.44;100.00
65800;BME280;52544;48.116;11.660;2023-03-14T06:54:17;93943.56;;;8.46;100.00
65800;BME280;52544;48.116;11.660;2023-03-14T06:56:43;93944.75;;;8.51;100.00
65800;BME280;52544;48.116;11.660;2023-03-14T06:59:08;93953.13;;;8.47;100.00
65800;BME280;52544;48.116;11.660;2023-03-14T07:01:34;93949.50;;;8.48;100.00
65800;BME280;52544;48.116;11.660;2023-03-14T07:04:00;93952.81;;;8.50;99.42
65800;BME280;52544;48.116;11.660;2023-03-14T07:06:26;93965.00;;;8.51;98.75
65800;BME280;52544;48.116;11.660;2023-03-14T07:08:51;93956.13;;;8.52;98.46
65800;BME280;52544;48.116;11.660;2023-03-14T07:11:17;93966.97;;;8.49;98.36
65800;BME280;52544;48.116;11.660;2023-03-14T07:13:42;93951.16;;;8.49;98.56
65800;BME280;52544;48.116;11.660;2023-03-14T07:16:08;93948.84;;;8.46;99.06
65800;BME280;52544;48.116;11.660;2023-03-14T07:18:34;93951.97;;;8.49;98.55
65800;BME280;52544;48.116;11.660;2023-03-14T07:20:59;93954.47;;;8.51;98.22
65800;BME280;52544;48.116;11.660;2023-03-14T07:23:25;93962.38;;;8.51;98.84
65800;BME280;52544;48.116;11.660;2023-03-14T07:25:51;93957.75;;;8.53;98.30
65800;BME280;52544;48.116;11.660;2023-03-14T07:28:18;93961.91;;;8.56;97.97
65800;BME280;52544;48.116;11.660;2023-03-14T07:30:46;93971.31;;;8.58;98.37
65800;BME280;52544;48.116;11.660;2023-03-14T07:33:12;93968.69;;;8.58;97.98
65800;BME280;52544;48.116;11.660;2023-03-14T07:35:37;93957.00;;;8.69;97.09
65800;BME280;52544;48.116;11.660;2023-03-14T07:38:03;93960.63;;;8.68;96.98
65800;BME280;52544;48.116;11.660;2023-03-14T07:40:28;93962.50;;;8.75;95.66
65800;BME280;52544;48.116;11.660;2023-03-14T07:42:53;93960.16;;;8.72;95.02
65800;BME280;52544;48.116;11.660;2023-03-14T07:45:20;93956.22;;;8.76;95.73
65800;BME280;52544;48.116;11.660;2023-03-14T07:47:46;93950.25;;;8.74;96.41
65800;BME280;52544;48.116;11.660;2023-03-14T07:50:11;93945.00;;;8.83;95.48
65800;BME280;52544;48.116;11.660;2023-03-14T07:52:36;93941.06;;;8.87;95.07
65800;BME280;52544;48.116;11.660;2023-03-14T07:55:02;93942.41;;;8.91;93.98
65800;BME280;52544;48.116;11.660;2023-03-14T07:57:27;93943.09;;;8.93;92.89
65800;BME280;52544;48.116;11.660;2023-03-14T07:59:53;93936.84;;;9.02;91.28
65800;BME280;52544;48.116;11.660;2023-03-14T08:02:18;93940.34;;;9.19;89.55
65800;BME280;52544;48.116;11.660;2023-03-14T08:04:47;93937.03;;;9.25;88.56
65800;BME280;52544;48.116;11.660;2023-03-14T08:07:12;93944.00;;;9.26;87.03
65800;BME280;52544;48.116;11.660;2023-03-14T08:09:38;93944.31;;;9.23;88.49
65800;BME280;52544;48.116;11.660;2023-03-14T08:12:03;93941.69;;;9.31;87.03
65800;BME280;52544;48.116;11.660;2023-03-14T08:14:29;93955.03;;;9.30;88.03
65800;BME280;52544;48.116;11.660;2023-03-14T08:16:56;93939.88;;;9.32;87.93
65800;BME280;52544;48.116;11.660;2023-03-14T08:19:21;93946.78;;;9.33;86.24
65800;BME280;52544;48.116;11.660;2023-03-14T08:21:47;93947.44;;;9.43;86.62
65800;BME280;52544;48.116;11.660;2023-03-14T08:24:12;93952.06;;;9.41;86.88
65800;BME280;52544;48.116;11.660;2023-03-14T08:26:38;93946.47;;;9.44;85.29
65800;BME280;52544;48.116;11.660;2023-03-14T08:29:03;93953.41;;;9.45;84.22
65800;BME280;52544;48.116;11.660;2023-03-14T08:31:30;93953.91;;;9.48;85.36
65800;BME280;52544;48.116;11.660;2023-03-14T08:33:58;93957.88;;;9.52;85.47
65800;BME280;52544;48.116;11.660;2023-03-14T08:36:23;93945.16;;;9.56;84.59
65800;BME280;52544;48.116;11.660;2023-03-14T08:38:49;93956.38;;;9.58;84.62
65800;BME280;52544;48.116;11.660;2023-03-14T08:41:14;93968.25;;;9.62;84.02
65800;BME280;52544;48.116;11.660;2023-03-14T08:43:40;93978.66;;;9.64;82.74
65800;BME280;52544;48.116;11.660;2023-03-14T08:46:05;93975.53;;;9.68;83.66
65800;BME280;52544;48.116;11.660;2023-03-14T08:48:31;93977.53;;;9.74;81.62
65800;BME280;52544;48.116;11.660;2023-03-14T08:51:03;93974.06;;;9.74;81.79
65800;BME280;52544;48.116;11.660;2023-03-14T08:53:29;93978.84;;;9.70;81.58
65800;BME280;52544;48.116;11.660;2023-03-14T08:55:54;93979.03;;;9.77;79.53
65800;BME280;52544;48.116;11.660;2023-03-14T08:58:20;93975.53;;;9.76;79.94
65800;BME280;52544;48.116;11.660;2023-03-14T09:00:46;93990.41;;;9.69;79.78
65800;BME280;52544;48.116;11.660;2023-03-14T09:03:11;93999.16;;;9.78;80.94
65800;BME280;52544;48.116;11.660;2023-03-14T09:05:37;93995.00;;;9.75;80.93
65800;BME280;52544;48.116;11.660;2023-03-14T09:08:02;93993.38;;;9.74;81.21
65800;BME280;52544;48.116;11.660;2023-03-14T09:10:28;93998.16;;;9.79;81.28
65800;BME280;52544;48.116;11.660;2023-03-14T09:12:53;94001.78;;;9.78;79.72
65800;BME280;52544;48.116;11.660;2023-03-14T09:15:19;93988.41;;;9.80;79.45
65800;BME280;52544;48.116;11.660;2023-03-14T09:17:44;93995.69;;;9.77;80.02
65800;BME280;52544;48.116;11.660;2023-03-14T09:20:10;93997.66;;;9.75;80.08
65800;BME280;52544;48.116;11.660;2023-03-14T09:22:36;93994.69;;;9.87;78.72
65800;BME280;52544;48.116;11.660;2023-03-14T09:25:04;93995.50;;;9.87;79.14
65800;BME280;52544;48.116;11.660;2023-03-14T09:27:30;93997.00;;;9.90;79.56
65800;BME280;52544;48.116;11.660;2023-03-14T09:29:55;94002.63;;;9.87;78.87
65800;BME280;52544;48.116;11.660;2023-03-14T09:32:21;94002.94;;;9.84;79.41
65800;BME280;52544;48.116;11.660;2023-03-14T09:34:46;93993.19;;;9.84;78.56
65800;BME280;52544;48.116;11.660;2023-03-14T09:37:11;93990.56;;;9.84;78.84
65800;BME280;52544;48.116;11.660;2023-03-14T09:39:37;93989.59;;;9.77;80.45
65800;BME280;52544;48.116;11.660;2023-03-14T09:42:05;93979.66;;;9.79;79.05
65800;BME280;52544;48.116;11.660;2023-03-14T09:44:35;93979.03;;;9.77;79.99
65800;BME280;52544;48.116;11.660;2023-03-14T09:47:06;93969.28;;;9.86;79.61
65800;BME280;52544;48.116;11.660;2023-03-14T09:49:42;93963.16;;;9.77;79.94
65800;BME280;52544;48.116;11.660;2023-03-14T09:54:48;93970.91;;;9.79;78.85
65800;BME280;52544;48.116;11.660;2023-03-14T09:57:17;93968.28;;;9.87;79.14
65800;BME280;52544;48.116;11.660;2023-03-14T09:59:45;93963.81;;;9.87;79.28
65800;BME280;52544;48.116;11.660;2023-03-14T10:02:14;93960.16;;;9.88;79.39
65800;BME280;52544;48.116;11.660;2023-03-14T10:04:41;93957.22;;;9.91;80.05
65800;BME280;52544;48.116;11.660;2023-03-14T10:07:30;93959.84;;;9.91;81.75
65800;BME280;52544;48.116;11.660;2023-03-14T10:09:59;93961.00;;;9.89;82.72
65800;BME280;52544;48.116;11.660;2023-03-14T10:12:35;93959.03;;;9.91;83.14
65800;BME280;52544;48.116;11.660;2023-03-14T10:15:05;93953.56;;;10.00;80.63
65800;BME280;52544;48.116;11.660;2023-03-14T10:17:41;93955.06;;;10.03;79.67
65800;BME280;52544;48.116;11.660;2023-03-14T10:20:26;93947.44;;;10.16;76.11
65800;BME280;52544;48.116;11.660;2023-03-14T10:25:44;93948.06;;;10.35;74.19
65800;BME280;52544;48.116;11.660;2023-03-14T10:28:30;93945.72;;;10.48;72.59
65800;BME280;52544;48.116;11.660;2023-03-14T10:30:57;93944.84;;;10.64;72.67
65800;BME280;52544;48.116;11.660;2023-03-14T10:33:29;93943.78;;;10.81;72.57
65800;BME280;52544;48.116;11.660;2023-03-14T10:36:03;93941.03;;;11.06;70.36
65800;BME280;52544;48.116;11.660;2023-03-14T10:38:35;93932.03;;;11.38;69.37
65800;BME280;52544;48.116;11.660;2023-03-14T10:41:01;93929.94;;;11.56;67.27
65800;BME280;52544;48.116;11.660;2023-03-14T10:43:33;93932.00;;;11.69;68.11
65800;BME280;52544;48.116;11.660;2023-03-14T10:46:06;93935.56;;;11.76;66.70
65800;BME280;52544;48.116;11.660;2023-03-14T10:48:38;93934.41;;;11.79;66.55
65800;BME280;52544;48.116;11.660;2023-03-14T10:53:42;93943.00;;;12.04;65.55
65800;BME280;52544;48.116;11.660;2023-03-14T10:56:15;93936.88;;;12.03;64.98
65800;BME280;52544;48.116;11.660;2023-03-14T10:58:50;93950.91;;;11.89;65.73
65800;BME280;52544;48.116;11.660;2023-03-14T11:06:56;93946.41;;;11.66;64.52
65800;BME280;52544;48.116;11.660;2023-03-14T11:09:50;93938.28;;;11.68;66.56
65800;BME280;52544;48.116;11.660;2023-03-14T11:15:14;93952.00;;;11.71;65.88
65800;BME280;52544;48.116;11.660;2023-03-14T11:21:06;93950.13;;;11.57;66.41
65800;BME280;52544;48.116;11.660;2023-03-14T11:28:50;93948.19;;;11.74;65.88
65800;BME280;52544;48.116;11.660;2023-03-14T11:36:21;93923.69;;;11.95;66.08
65800;BME280;52544;48.116;11.660;2023-03-14T11:38:57;93926.84;;;12.13;60.46
65800;BME280;52544;48.116;11.660;2023-03-14T11:41:58;93920.44;;;12.22;60.23
65800;BME280;52544;48.116;11.660;2023-03-14T11:44:23;93915.44;;;12.28;61.50
65800;BME280;52544;48.116;11.660;2023-03-14T11:47:05;93918.91;;;12.43;62.01
65800;BME280;52544;48.116;11.660;2023-03-14T11:49:36;93907.91;;;12.61;58.77
65800;BME280;52544;48.116;11.660;2023-03-14T11:52:37;93904.63;;;12.73;56.19
65800;BME280;52544;48.116;11.660;2023-03-14T11:55:11;93907.16;;;12.82;54.71
65800;BME280;52544;48.116;11.660;2023-03-14T11:57:39;93911.28;;;12.69;53.96
65800;BME280;52544;48.116;11.660;2023-03-14T12:00:24;93908.75;;;12.61;53.74
65800;BME280;52544;48.116;11.660;2023-03-14T12:03:11;93904.53;;;12.52;54.59
65800;BME280;52544;48.116;11.660;2023-03-14T12:06:20;93914.03;;;12.61;54.00
65800;BME280;52544;48.116;11.660;2023-03-14T12:13:53;93909.66;;;12.68;53.81
65800;BME280;52544;48.116;11.660;2023-03-14T12:18:53;93901.34;;;12.71;53.23
65800;BME280;52544;48.116;11.660;2023-03-14T12:21:19;93904.34;;;12.68;54.11
65800;BME280;52544;48.116;11.660;2023-03-14T12:23:49;93893.38;;;12.71;53.53
65800;BME280;52544;48.116;11.660;2023-03-14T12:26:19;93899.97;;;12.75;53.93
65800;BME280;52544;48.116;11.660;2023-03-14T12:41:52;93899.13;;;12.31;56.33
65800;BME280;52544;48.116;11.660;2023-03-14T12:44:38;93894.94;;;12.21;56.86
65800;BME280;52544;48.116;11.660;2023-03-14T12:50:11;93909.19;;;12.35;55.08
65800;BME280;52544;48.116;11.660;2023-03-14T12:52:55;93911.13;;;12.56;56.55
65800;BME280;52544;48.116;11.660;2023-03-14T12:55:44;93908.81;;;12.83;54.10
65800;BME280;52544;48.116;11.660;2023-03-14T12:58:32;93901.63;;;13.13;53.22
65800;BME280;52544;48.116;11.660;2023-03-14T13:01:02;93903.88;;;13.16;52.59
65800;BME280;52544;48.116;11.660;2023-03-14T13:03:45;93913.41;;;13.25;53.68
65800;BME280;52544;48.116;11.660;2023-03-14T13:06:12;93917.19;;;13.31;54.10
65800;BME280;52544;48.116;11.660;2023-03-14T13:11:12;93902.81;;;13.10;53.31
65800;BME280;52544;48.116;11.660;2023-03-14T13:13:45;93913.69;;;12.79;53.96
65800;BME280;52544;48.116;11.660;2023-03-14T13:16:15;93925.75;;;12.52;55.29
65800;BME280;52544;48.116;11.660;2023-03-14T13:18:43;93917.53;;;12.47;56.47
65800;BME280;52544;48.116;11.660;2023-03-14T13:21:16;93911.28;;;12.69;55.25
65800;BME280;52544;48.116;11.660;2023-03-14T13:23:59;93910.44;;;12.98;54.64
65800;BME280;52544;48.116;11.660;2023-03-14T13:27:04;93922.28;;;12.96;54.35
65800;BME280;52544;48.116;11.660;2023-03-14T13:29:25;93927.88;;;12.71;55.65
65800;BME280;52544;48.116;11.660;2023-03-14T13:31:56;93923.19;;;12.73;55.11
65800;BME280;52544;48.116;11.660;2023-03-14T13:34:29;93934.84;;;12.58;55.82
65800;BME280;52544;48.116;11.660;2023-03-14T13:36:55;93949.38;;;12.47;56.03
65800;BME280;52544;48.116;11.660;2023-03-14T13:39:24;93981.09;;;12.25;56.74
65800;BME280;52544;48.116;11.660;2023-03-14T13:41:54;93969.88;;;12.00;57.35
65800;BME280;52544;48.116;11.660;2023-03-14T13:46:50;93988.03;;;11.58;59.74
65800;BME280;52544;48.116;11.660;2023-03-14T13:49:22;94005.56;;;11.36;60.86
65800;BME280;52544;48.116;11.660;2023-03-14T13:51:49;94012.94;;;11.17;61.56
65800;BME280;52544;48.116;11.660;2023-03-14T13:54:17;94015.66;;;11.01;62.92
65800;BME280;52544;48.116;11.660;2023-03-14T13:56:43;94012.06;;;10.86;63.31
65800;BME280;52544;48.116;11.660;2023-03-14T13:59:26;94018.72;;;10.73;65.41
65800;BME280;52544;48.116;11.660;2023-03-14T14:01:53;94014.78;;;10.61;67.49